Time;durP1;ratioP1;P1;durP2;ratioP2;P2;SDS_P1;SDS_P2;PMS_P1;PMS_P2;Temp;Humidity;BMP_temperature;BMP_pressure;BME280_temperature;BME280_humidity;BME280_pressure;Samples;Min_cycle;Max_cycle;Signal;HPM_P1;HPM_P2
2023/11/01 00:00:13;;;;;;;3.40;1.10;;;10.50;95.20;;;;;;5083879;28;20048;-68
2023/11/01 00:02:58;;;;;;;2.35;0.90;;;10.50;95.10;;;;;;5082902;28;20394;-69
2023/11/01 00:05:46;;;;;;;1.27;0.88;;;10.50;95.20;;;;;;5081658;28;20044;-68
2023/11/01 00:08:32;;;;;;;1.08;0.85;;;10.60;95.20;;;;;;5087969;28;20042;-68
2023/11/01 00:11:18;;;;;;;2.10;0.80;;;10.60;95.20;;;;;;5088187;28;20287;-68
2023/11/01 00:14:05;;;;;;;1.98;0.63;;;10.60;95.20;;;;;;5087660;28;20035;-67
2023/11/01 00:16:51;;;;;;;1.33;1.10;;;10.70;95.10;;;;;;5088951;28;20443;-67
2023/11/01 00:19:37;;;;;;;2.17;1.10;;;10.70;95.10;;;;;;5088013;28;20524;-66
2023/11/01 00:22:23;;;;;;;2.63;1.15;;;10.70;95.00;;;;;;5088990;28;20185;-66
2023/11/01 00:25:09;;;;;;;1.90;0.90;;;10.70;95.00;;;;;;5086524;28;20040;-67
2023/11/01 00:27:54;;;;;;;1.38;0.80;;;10.70;95.00;;;;;;5087560;28;20497;-67
2023/11/01 00:30:40;;;;;;;2.28;0.80;;;10.70;94.90;;;;;;5086950;28;20523;-66
2023/11/01 00:33:26;;;;;;;5.25;1.08;;;10.80;95.00;;;;;;5086757;28;20044;-67
2023/11/01 00:36:12;;;;;;;2.08;1.23;;;10.80;94.90;;;;;;5086929;28;20040;-68
2023/11/01 00:38:58;;;;;;;1.60;1.00;;;10.80;94.80;;;;;;5086777;28;20090;-68
2023/11/01 00:41:45;;;;;;;1.92;0.88;;;10.80;94.90;;;;;;5084946;28;20409;-67
2023/11/01 00:44:31;;;;;;;3.17;1.27;;;10.80;94.80;;;;;;5085062;28;20040;-66
2023/11/01 00:47:17;;;;;;;1.50;1.00;;;10.80;94.90;;;;;;5085308;28;20233;-67
2023/11/01 00:50:05;;;;;;;2.00;1.27;;;10.90;94.80;;;;;;5084541;28;20333;-67
2023/11/01 00:52:51;;;;;;;1.60;0.90;;;10.90;94.70;;;;;;5087972;28;20056;-68
2023/11/01 00:55:37;;;;;;;1.67;1.02;;;10.90;94.60;;;;;;5088588;28;20047;-68
2023/11/01 00:58:23;;;;;;;1.80;1.10;;;10.90;94.60;;;;;;5086978;28;20429;-70
2023/11/01 01:01:09;;;;;;;3.75;1.10;;;10.90;94.60;;;;;;5086342;28;20448;-72
2023/11/01 01:03:55;;;;;;;2.35;0.98;;;11.00;94.60;;;;;;5085945;28;20128;-70
2023/11/01 01:06:41;;;;;;;2.22;1.10;;;10.90;94.60;;;;;;5088449;28;20047;-70
2023/11/01 01:09:27;;;;;;;2.83;1.10;;;11.00;94.60;;;;;;5097793;28;20113;-70
2023/11/01 01:12:13;;;;;;;2.50;1.10;;;11.00;94.70;;;;;;5100331;28;20524;-69
2023/11/01 01:14:59;;;;;;;2.08;0.98;;;11.00;94.80;;;;;;5088043;28;20181;-69
2023/11/01 01:17:45;;;;;;;1.98;0.77;;;11.00;94.80;;;;;;5084972;28;20052;-70
2023/11/01 01:20:31;;;;;;;1.55;0.88;;;11.00;94.90;;;;;;5083719;28;20056;-70
2023/11/01 01:23:17;;;;;;;3.25;0.82;;;11.00;95.00;;;;;;5086195;28;20043;-70
2023/11/01 01:26:03;;;;;;;3.70;1.08;;;11.00;94.90;;;;;;5086728;28;20047;-70
2023/11/01 01:28:49;;;;;;;1.73;0.88;;;11.00;94.90;;;;;;5086511;28;20044;-70
2023/11/01 01:31:35;;;;;;;1.35;0.80;;;11.00;94.90;;;;;;5084829;28;20043;-69
2023/11/01 01:34:21;;;;;;;1.85;1.05;;;11.10;95.10;;;;;;5083885;28;20508;-70
2023/11/01 01:37:07;;;;;;;1.33;0.82;;;11.00;95.10;;;;;;5088167;28;20048;-69
2023/11/01 01:39:53;;;;;;;2.47;1.27;;;11.00;95.20;;;;;;5085273;28;20044;-69
2023/11/01 01:42:39;;;;;;;1.35;1.05;;;11.00;95.30;;;;;;5084350;28;20036;-70
2023/11/01 01:45:25;;;;;;;1.50;1.15;;;11.00;95.40;;;;;;5085511;28;20489;-70
2023/11/01 01:48:12;;;;;;;1.92;1.10;;;11.00;95.50;;;;;;5088388;28;20040;-70
2023/11/01 01:50:58;;;;;;;3.00;1.02;;;11.00;95.60;;;;;;5072925;28;20490;-70
2023/11/01 01:53:46;;;;;;;1.67;1.05;;;11.00;95.70;;;;;;5080508;28;20126;-67
2023/11/01 01:56:32;;;;;;;3.92;1.10;;;11.00;95.80;;;;;;5087284;28;20130;-68
2023/11/01 01:59:19;;;;;;;2.20;0.77;;;11.00;96.00;;;;;;5085428;28;20055;-67
2023/11/01 02:02:08;;;;;;;1.95;1.00;;;11.00;96.10;;;;;;5085906;28;20063;-67
2023/11/01 02:04:54;;;;;;;1.58;1.05;;;11.00;96.20;;;;;;5085315;28;20036;-68
2023/11/01 02:07:40;;;;;;;0.95;0.85;;;11.00;96.30;;;;;;5083687;28;20043;-67
2023/11/01 02:10:26;;;;;;;1.42;0.93;;;11.00;96.30;;;;;;5083974;28;20044;-67
2023/11/01 02:13:14;;;;;;;2.72;1.40;;;11.10;96.40;;;;;;5085274;28;20106;-67
2023/11/01 02:16:00;;;;;;;2.95;0.90;;;11.00;96.50;;;;;;5084536;28;20110;-66
2023/11/01 02:18:46;;;;;;;2.33;1.08;;;11.00;96.50;;;;;;5070538;28;20044;-67
2023/11/01 02:21:32;;;;;;;3.67;1.08;;;11.10;96.50;;;;;;5087292;28;20040;-67
2023/11/01 02:24:18;;;;;;;2.00;1.17;;;11.10;96.60;;;;;;5084863;28;20036;-68
2023/11/01 02:27:04;;;;;;;3.13;1.05;;;11.10;96.60;;;;;;5082216;28;20036;-67
2023/11/01 02:29:50;;;;;;;5.57;2.03;;;11.10;96.60;;;;;;5086464;28;20067;-67
2023/11/01 02:32:36;;;;;;;3.28;0.88;;;11.10;96.60;;;;;;5084772;28;20036;-67
2023/11/01 02:35:22;;;;;;;4.40;1.17;;;11.10;96.70;;;;;;5083916;28;20048;-68
2023/11/01 02:38:09;;;;;;;4.43;1.40;;;11.10;96.80;;;;;;5081850;28;20501;-67
2023/11/01 02:40:55;;;;;;;3.97;1.33;;;11.00;96.80;;;;;;5084759;28;20408;-67
2023/11/01 02:43:41;;;;;;;2.15;1.20;;;11.00;96.90;;;;;;5083923;28;20028;-67
2023/11/01 02:46:27;;;;;;;1.50;0.93;;;11.00;97.00;;;;;;5083243;28;20048;-66
2023/11/01 02:49:13;;;;;;;3.25;1.38;;;11.00;96.90;;;;;;5084952;28;20129;-67
2023/11/01 02:51:59;;;;;;;6.05;1.85;;;10.90;96.90;;;;;;5083691;28;20483;-67
2023/11/01 02:54:45;;;;;;;1.23;1.00;;;10.90;96.80;;;;;;5085683;28;20710;-67
2023/11/01 02:57:34;;;;;;;2.17;1.00;;;10.90;96.70;;;;;;5068949;28;20079;-66
2023/11/01 03:00:20;;;;;;;1.88;0.90;;;10.90;96.70;;;;;;5085225;28;20140;-67
2023/11/01 03:03:06;;;;;;;4.43;1.13;;;10.90;96.70;;;;;;5083326;28;20792;-67
2023/11/01 03:05:52;;;;;;;2.03;1.17;;;10.90;96.70;;;;;;5095347;28;20040;-67
2023/11/01 03:08:38;;;;;;;2.00;1.27;;;10.80;96.80;;;;;;5083091;28;20048;-67
2023/11/01 03:11:24;;;;;;;3.05;1.48;;;10.80;96.90;;;;;;5082873;28;20055;-66
2023/11/01 03:14:10;;;;;;;3.42;1.70;;;10.80;97.00;;;;;;5085293;28;20036;-67
2023/11/01 03:16:56;;;;;;;7.30;2.22;;;10.80;97.00;;;;;;5084339;28;20046;-66
2023/11/01 03:19:42;;;;;;;4.40;1.80;;;10.80;97.10;;;;;;5080665;28;21465;-66
2023/11/01 03:22:28;;;;;;;3.05;1.30;;;10.80;97.20;;;;;;5085299;28;20032;-66
2023/11/01 03:25:14;;;;;;;3.45;1.30;;;10.80;97.30;;;;;;5084680;28;20508;-67
2023/11/01 03:28:00;;;;;;;2.80;1.80;;;10.80;97.30;;;;;;5083882;28;20047;-67
2023/11/01 03:30:46;;;;;;;2.58;1.50;;;10.80;97.30;;;;;;5081584;28;20163;-67
2023/11/01 03:33:32;;;;;;;17.42;2.33;;;10.80;97.30;;;;;;5084440;28;20127;-67
2023/11/01 03:36:18;;;;;;;2.88;1.60;;;10.80;97.30;;;;;;5082009;28;20046;-67
2023/11/01 03:39:09;;;;;;;2.42;1.30;;;10.70;97.40;;;;;;5083203;28;20078;-67
2023/11/01 03:41:54;;;;;;;2.10;1.35;;;10.70;97.40;;;;;;5083443;28;20471;-67
2023/11/01 03:44:41;;;;;;;3.00;1.48;;;10.70;97.40;;;;;;5084288;28;20063;-67
2023/11/01 03:47:27;;;;;;;2.22;1.23;;;10.70;97.30;;;;;;5083511;28;20040;-66
2023/11/01 03:50:13;;;;;;;2.20;1.20;;;10.70;97.40;;;;;;5083729;28;20048;-67
2023/11/01 03:52:59;;;;;;;3.15;1.50;;;10.70;97.30;;;;;;5083805;28;20044;-67
2023/11/01 03:55:45;;;;;;;6.28;1.30;;;10.70;97.30;;;;;;5083668;28;20028;-68
2023/11/01 03:58:31;;;;;;;3.03;1.80;;;10.70;97.30;;;;;;5069581;28;20043;-67
2023/11/01 04:01:17;;;;;;;2.83;1.35;;;10.70;97.30;;;;;;5083011;28;20151;-70
2023/11/01 04:04:03;;;;;;;3.80;1.50;;;10.70;97.40;;;;;;5082783;28;20291;-69
2023/11/01 04:06:49;;;;;;;1.10;1.00;;;10.70;97.40;;;;;;5083666;28;20213;-69
2023/11/01 04:09:35;;;;;;;1.67;1.08;;;10.70;97.40;;;;;;5084483;28;20130;-70
2023/11/01 04:12:23;;;;;;;1.52;0.90;;;10.70;97.40;;;;;;5082982;28;20051;-70
2023/11/01 04:15:12;;;;;;;1.77;1.02;;;10.70;97.30;;;;;;5082175;28;20040;-71
2023/11/01 04:17:58;;;;;;;2.60;1.00;;;10.70;97.30;;;;;;5085464;28;20109;-69
2023/11/01 04:20:44;;;;;;;3.05;2.28;;;10.70;97.20;;;;;;5092494;28;20135;-70
2023/11/01 04:23:30;;;;;;;2.28;1.10;;;10.70;97.20;;;;;;5096873;28;20057;-70
2023/11/01 04:26:16;;;;;;;2.08;1.00;;;10.60;97.20;;;;;;5082803;28;20043;-70
2023/11/01 04:29:04;;;;;;;2.40;1.20;;;10.70;97.10;;;;;;5083425;28;20040;-70
2023/11/01 04:31:52;;;;;;;3.25;1.30;;;10.70;97.00;;;;;;5084215;28;20116;-69
2023/11/01 04:34:38;;;;;;;2.08;1.10;;;10.70;97.00;;;;;;5082585;28;20094;-69
2023/11/01 04:37:25;;;;;;;1.92;1.10;;;10.70;97.10;;;;;;5081979;28;20036;-70
2023/11/01 04:40:12;;;;;;;1.85;1.00;;;10.70;97.10;;;;;;5082914;28;20056;-71
2023/11/01 04:42:58;;;;;;;2.50;1.38;;;10.70;97.00;;;;;;5083855;28;20474;-70
2023/11/01 04:45:46;;;;;;;3.65;1.33;;;10.70;97.00;;;;;;5078772;28;20751;-70
2023/11/01 04:48:32;;;;;;;1.95;1.25;;;10.70;97.00;;;;;;5084460;28;20417;-71
2023/11/01 04:51:18;;;;;;;2.00;1.05;;;10.70;97.10;;;;;;5083161;28;21376;-71
2023/11/01 04:54:06;;;;;;;4.07;1.50;;;10.70;97.10;;;;;;5086051;28;20040;-70
2023/11/01 04:56:52;;;;;;;2.45;1.27;;;10.70;97.10;;;;;;5084121;28;20101;-70
2023/11/01 04:59:38;;;;;;;2.38;1.00;;;10.70;97.10;;;;;;5085809;28;20524;-70
2023/11/01 05:02:24;;;;;;;2.88;1.40;;;10.70;97.20;;;;;;5084026;28;20508;-70
2023/11/01 05:05:10;;;;;;;2.40;1.40;;;10.70;97.30;;;;;;5086357;28;20048;-69
2023/11/01 05:07:56;;;;;;;3.60;1.70;;;10.70;97.40;;;;;;5082956;28;20032;-70
2023/11/01 05:10:42;;;;;;;2.40;1.55;;;10.70;97.40;;;;;;5086944;28;20064;-70
2023/11/01 05:13:28;;;;;;;5.32;1.50;;;10.70;97.50;;;;;;5086362;28;20096;-67
2023/11/01 05:16:14;;;;;;;1.92;1.20;;;10.60;97.60;;;;;;5084951;28;20052;-67
2023/11/01 05:19:00;;;;;;;2.78;1.55;;;10.70;97.70;;;;;;5082561;28;20044;-66
2023/11/01 05:21:46;;;;;;;2.63;1.80;;;10.70;97.70;;;;;;5084712;28;20116;-67
2023/11/01 05:24:32;;;;;;;3.78;1.35;;;10.70;97.80;;;;;;5085713;28;20074;-67
2023/11/01 05:27:19;;;;;;;2.95;1.85;;;10.70;97.90;;;;;;5084594;28;20076;-67
2023/11/01 05:30:07;;;;;;;3.10;1.60;;;10.70;97.90;;;;;;5085562;28;20051;-67
2023/11/01 05:32:53;;;;;;;2.45;1.33;;;10.70;97.90;;;;;;5086804;28;20096;-65
2023/11/01 05:35:38;;;;;;;2.25;1.40;;;10.70;97.90;;;;;;5085901;28;20501;-71
2023/11/01 05:38:26;;;;;;;1.45;1.27;;;10.70;97.90;;;;;;5085807;28;20514;-70
2023/11/01 05:41:12;;;;;;;4.35;1.50;;;10.70;97.90;;;;;;5072778;28;20075;-69
2023/11/01 05:43:58;;;;;;;2.45;1.10;;;10.70;97.90;;;;;;5086555;28;20067;-73
2023/11/01 05:46:45;;;;;;;3.28;1.42;;;10.70;98.00;;;;;;5084509;28;20036;-72
2023/11/01 05:49:31;;;;;;;2.30;1.30;;;10.70;98.00;;;;;;5081242;28;20412;-71
2023/11/01 05:52:17;;;;;;;1.30;1.17;;;10.70;98.10;;;;;;5078180;28;20048;-70
2023/11/01 05:55:03;;;;;;;2.50;1.40;;;10.70;98.00;;;;;;5078432;28;20032;-72
2023/11/01 05:57:50;;;;;;;4.28;1.50;;;10.70;98.00;;;;;;5080187;28;20425;-71
2023/11/01 06:00:36;;;;;;;2.30;1.42;;;10.70;98.00;;;;;;5081684;28;20059;-72
2023/11/01 06:03:25;;;;;;;2.53;1.42;;;10.70;98.10;;;;;;5086291;28;20044;-72
2023/11/01 06:06:12;;;;;;;4.00;1.65;;;10.70;98.10;;;;;;5083339;28;20048;-72
2023/11/01 06:08:58;;;;;;;2.65;1.70;;;10.70;98.40;;;;;;5083311;28;20179;-72
2023/11/01 06:11:44;;;;;;;2.45;1.50;;;10.70;98.20;;;;;;5081405;28;20044;-72
2023/11/01 06:14:30;;;;;;;3.45;1.77;;;10.70;98.30;;;;;;5072629;28;20093;-72
2023/11/01 06:17:16;;;;;;;3.00;1.60;;;10.70;98.30;;;;;;5080964;28;20552;-72
2023/11/01 06:20:02;;;;;;;2.70;1.58;;;10.70;98.30;;;;;;5085141;28;20052;-72
2023/11/01 06:22:48;;;;;;;2.22;1.25;;;10.70;98.30;;;;;;5075622;28;20040;-72
2023/11/01 06:25:34;;;;;;;5.78;1.30;;;10.70;98.40;;;;;;5076625;28;20070;-72
2023/11/01 06:28:20;;;;;;;4.22;1.55;;;10.70;98.40;;;;;;5081869;28;20040;-70
2023/11/01 06:31:06;;;;;;;14.63;2.60;;;10.70;98.40;;;;;;5071236;28;20040;-71
2023/11/01 06:33:52;;;;;;;2.63;1.60;;;10.70;98.40;;;;;;5076657;28;20119;-71
2023/11/01 06:36:38;;;;;;;2.88;1.70;;;10.70;98.50;;;;;;5081125;28;20268;-71
2023/11/01 06:39:24;;;;;;;2.67;1.40;;;10.80;98.50;;;;;;5082681;28;20053;-71
2023/11/01 06:42:10;;;;;;;2.58;1.40;;;10.80;98.50;;;;;;5082339;28;20036;-70
2023/11/01 06:44:56;;;;;;;2.53;1.40;;;10.80;98.50;;;;;;5083105;28;20610;-70
2023/11/01 06:47:42;;;;;;;7.43;1.35;;;10.80;98.50;;;;;;5074023;28;20125;-71
2023/11/01 06:50:28;;;;;;;2.72;1.33;;;10.80;98.50;;;;;;5073204;28;20518;-71
2023/11/01 06:53:14;;;;;;;5.90;1.30;;;10.80;98.60;;;;;;5080858;28;20039;-69
2023/11/01 06:56:00;;;;;;;2.28;1.20;;;10.90;98.60;;;;;;5077671;28;20040;-69
2023/11/01 06:58:46;;;;;;;2.35;1.08;;;10.90;98.60;;;;;;5080783;28;20075;-70
2023/11/01 07:01:32;;;;;;;1.35;1.17;;;10.90;98.70;;;;;;5075597;28;20084;-71
2023/11/01 07:04:18;;;;;;;2.30;1.50;;;10.90;98.80;;;;;;5080546;28;20064;-70
2023/11/01 07:07:04;;;;;;;2.55;1.38;;;11.00;98.80;;;;;;5078225;28;20043;-71
2023/11/01 07:09:50;;;;;;;2.40;1.20;;;11.00;98.70;;;;;;5079083;28;20047;-71
2023/11/01 07:12:36;;;;;;;5.95;1.30;;;11.00;98.70;;;;;;5077338;28;20044;-70
2023/11/01 07:15:22;;;;;;;2.90;1.10;;;11.10;98.70;;;;;;5078781;28;20049;-71
2023/11/01 07:18:08;;;;;;;4.68;1.60;;;11.10;98.70;;;;;;5077422;28;20118;-71
2023/11/01 07:20:54;;;;;;;1.83;1.00;;;11.10;98.80;;;;;;5081688;28;20051;-71
2023/11/01 07:23:40;;;;;;;3.30;1.33;;;11.20;98.80;;;;;;5080916;28;20070;-71
2023/11/01 07:26:26;;;;;;;3.05;1.30;;;11.20;98.80;;;;;;5080833;28;20560;-71
2023/11/01 07:29:12;;;;;;;2.17;1.10;;;11.20;98.70;;;;;;5074246;28;20044;-71
2023/11/01 07:31:58;;;;;;;4.85;1.38;;;11.20;98.80;;;;;;5081909;28;20055;-72
2023/11/01 07:34:44;;;;;;;5.40;1.50;;;11.20;98.80;;;;;;5096106;28;20031;-72
2023/11/01 07:37:30;;;;;;;2.55;1.60;;;11.20;98.60;;;;;;5093290;28;20035;-72
2023/11/01 07:40:16;;;;;;;5.50;1.50;;;11.20;98.70;;;;;;5085759;28;20051;-72
2023/11/01 07:43:02;;;;;;;3.25;1.15;;;11.20;98.70;;;;;;5083023;28;20158;-69
2023/11/01 07:45:49;;;;;;;3.28;1.60;;;11.30;98.80;;;;;;5078641;28;20054;-72
2023/11/01 07:48:36;;;;;;;4.28;2.10;;;11.30;99.00;;;;;;5078501;28;20043;-72
2023/11/01 07:51:22;;;;;;;3.72;1.52;;;11.40;99.10;;;;;;5075439;28;20043;-72
2023/11/01 07:54:09;;;;;;;6.78;2.10;;;11.40;99.10;;;;;;5075223;28;20032;-72
2023/11/01 07:56:55;;;;;;;5.75;1.90;;;11.40;99.40;;;;;;5074661;28;20170;-73
2023/11/01 07:59:41;;;;;;;3.45;1.80;;;11.40;99.30;;;;;;5078420;28;20047;-72
2023/11/01 08:02:27;;;;;;;4.50;1.88;;;11.40;99.40;;;;;;5076994;28;20047;-72
2023/11/01 08:05:13;;;;;;;3.72;1.80;;;11.40;99.50;;;;;;5077555;28;20314;-72
2023/11/01 08:07:59;;;;;;;2.90;1.42;;;11.40;99.40;;;;;;5072839;28;20040;-72
2023/11/01 08:10:45;;;;;;;5.97;1.50;;;11.40;99.40;;;;;;5074628;28;20040;-73
2023/11/01 08:13:31;;;;;;;4.72;1.27;;;11.40;99.50;;;;;;5077132;28;20119;-74
2023/11/01 08:16:17;;;;;;;3.70;1.65;;;11.40;99.60;;;;;;5076296;28;20044;-74
2023/11/01 08:19:03;;;;;;;3.65;1.45;;;11.40;99.70;;;;;;5076540;28;20413;-70
2023/11/01 08:21:49;;;;;;;3.38;1.52;;;11.40;99.70;;;;;;5075109;28;20106;-73
2023/11/01 08:24:35;;;;;;;2.05;1.30;;;11.50;99.80;;;;;;5086696;28;20131;-72
2023/11/01 08:27:21;;;;;;;3.10;1.80;;;11.50;99.80;;;;;;5086677;28;20119;-70
2023/11/01 08:30:08;;;;;;;2.67;1.50;;;11.50;99.90;;;;;;5091374;28;20045;-74
2023/11/01 08:32:54;;;;;;;4.93;2.47;;;11.50;99.90;;;;;;5082396;28;20047;-70
2023/11/01 08:35:40;;;;;;;3.17;1.88;;;11.50;99.90;;;;;;5088668;28;20050;-70
2023/11/01 08:38:26;;;;;;;3.53;1.83;;;11.60;99.90;;;;;;5084349;28;20690;-71
2023/11/01 08:41:13;;;;;;;3.97;1.75;;;11.60;99.90;;;;;;5085629;28;20060;-73
2023/11/01 08:43:59;;;;;;;4.15;2.03;;;11.60;99.90;;;;;;5080888;28;20055;-71
2023/11/01 08:46:45;;;;;;;3.50;1.80;;;11.60;99.90;;;;;;5074436;28;20162;-71
2023/11/01 08:49:31;;;;;;;4.80;2.00;;;11.70;99.90;;;;;;5071528;28;20082;-71
2023/11/01 08:52:17;;;;;;;2.88;1.40;;;11.70;99.90;;;;;;5071875;28;20055;-71
2023/11/01 08:55:03;;;;;;;2.90;1.70;;;11.70;99.90;;;;;;5072853;28;20152;-71
2023/11/01 08:57:49;;;;;;;3.55;1.90;;;11.80;99.90;;;;;;5086079;28;20076;-70
2023/11/01 09:00:35;;;;;;;4.45;1.55;;;11.80;99.90;;;;;;5088822;28;20052;-71
2023/11/01 09:03:24;;;;;;;3.38;1.75;;;11.90;99.90;;;;;;5084303;28;20081;-71
2023/11/01 09:06:10;;;;;;;5.22;2.03;;;12.00;99.90;;;;;;5093482;28;20109;-71
2023/11/01 09:08:55;;;;;;;5.72;2.13;;;12.00;99.90;;;;;;5091757;28;20051;-72
2023/11/01 09:11:42;;;;;;;3.95;1.90;;;12.00;99.90;;;;;;5074921;28;20413;-71
2023/11/01 09:14:28;;;;;;;6.63;3.08;;;12.10;99.90;;;;;;5072659;28;20394;-71
2023/11/01 09:17:14;;;;;;;3.70;1.80;;;12.10;99.90;;;;;;5072663;28;20102;-70
2023/11/01 09:20:00;;;;;;;4.90;2.63;;;12.10;99.90;;;;;;5072128;28;20449;-71
2023/11/01 09:22:46;;;;;;;4.97;2.00;;;12.20;99.90;;;;;;5071667;28;20040;-71
2023/11/01 09:25:32;;;;;;;4.05;2.28;;;12.30;99.90;;;;;;5071427;28;20474;-71
2023/11/01 09:28:18;;;;;;;4.03;2.10;;;12.40;99.90;;;;;;5073033;28;20044;-71
2023/11/01 09:31:05;;;;;;;3.28;1.92;;;12.40;99.90;;;;;;5072699;28;20413;-71
2023/11/01 09:33:51;;;;;;;7.82;1.92;;;12.40;99.90;;;;;;5071243;28;20474;-71
2023/11/01 09:36:38;;;;;;;3.17;2.20;;;12.50;99.90;;;;;;5080614;28;20042;-71
2023/11/01 09:39:24;;;;;;;4.53;2.08;;;12.60;99.90;;;;;;5082188;28;20117;-71
2023/11/01 09:42:20;;;;;;;5.68;2.30;;;12.60;99.90;;;;;;5084088;28;20483;-72
2023/11/01 09:45:09;;;;;;;;;;;12.60;99.90;;;;;;5092328;27;20044;-72
2023/11/01 09:47:55;;;;;;;4.25;2.10;;;12.70;99.90;;;;;;5092164;28;19911;-73
2023/11/01 09:50:43;;;;;;;3.58;2.20;;;12.70;99.90;;;;;;5092718;27;20048;-70
2023/11/01 09:53:29;;;;;;;5.85;2.85;;;12.70;99.90;;;;;;5075877;28;20451;-70
2023/11/01 09:56:17;;;;;;;3.83;1.88;;;12.90;99.90;;;;;;5091675;28;20048;-72
2023/11/01 09:59:03;;;;;;;2.55;2.00;;;12.90;99.90;;;;;;5073260;28;20166;-72
2023/11/01 10:01:49;;;;;;;2.47;1.73;;;13.00;99.90;;;;;;5087198;28;20036;-72
2023/11/01 10:04:36;;;;;;;3.97;1.80;;;13.00;99.90;;;;;;5092050;28;20035;-73
2023/11/01 10:07:22;;;;;;;2.83;1.73;;;13.10;99.90;;;;;;5086403;28;20040;-71
2023/11/01 10:10:16;;;;;;;3.28;1.98;;;13.10;99.90;;;;;;5090016;28;20083;-72
2023/11/01 10:13:02;;;;;;;6.78;2.20;;;13.20;99.90;;;;;;5110593;28;20039;-72
2023/11/01 10:15:51;;;;;;;4.88;2.08;;;13.30;99.90;;;;;;5071320;28;20375;-71
2023/11/01 10:18:37;;;;;;;3.20;1.63;;;13.30;99.90;;;;;;5086558;28;20043;-71
2023/11/01 10:21:29;;;;;;;5.03;2.33;;;13.40;99.90;;;;;;5070139;28;20326;-71
2023/11/01 10:24:15;;;;;;;5.25;2.40;;;13.50;99.90;;;;;;5084306;28;20123;-72
2023/11/01 10:27:01;;;;;;;6.55;1.65;;;13.50;99.90;;;;;;5091200;28;20047;-71
2023/11/01 10:29:47;;;;;;;4.07;2.40;;;13.60;99.90;;;;;;5091001;28;20518;-71
2023/11/01 10:32:33;;;;;;;4.25;2.17;;;13.60;99.90;;;;;;5091110;28;20505;-73
2023/11/01 10:35:19;;;;;;;4.00;2.03;;;13.70;99.90;;;;;;5091336;28;20044;-71
2023/11/01 10:38:05;;;;;;;4.50;2.05;;;13.70;99.90;;;;;;5085715;28;20094;-71
2023/11/01 10:40:52;;;;;;;4.47;2.22;;;13.90;99.90;;;;;;5091820;28;20048;-72
2023/11/01 10:43:38;;;;;;;4.55;2.10;;;13.90;99.90;;;;;;5105705;28;20036;-69
2023/11/01 10:46:24;;;;;;;4.18;1.98;;;14.10;99.90;;;;;;5107375;28;20047;-71
2023/11/01 10:49:11;;;;;;;4.50;1.85;;;14.20;99.90;;;;;;5102429;28;20028;-71
2023/11/01 10:52:00;;;;;;;4.82;2.47;;;14.30;99.90;;;;;;5092499;28;20485;-71
2023/11/01 10:54:49;;;;;;;3.70;2.15;;;14.40;99.90;;;;;;5076731;28;20036;-71
2023/11/01 10:57:35;;;;;;;8.02;2.58;;;14.50;99.90;;;;;;5091480;28;20112;-72
2023/11/01 11:00:37;;;;;;;4.22;1.92;;;14.60;99.90;;;;;;5091261;28;20135;-72
2023/11/01 11:03:49;;;;;;;5.03;1.75;;;14.70;99.90;;;;;;5098121;28;20534;-72
2023/11/01 11:06:44;;;;;;;4.68;2.25;;;14.70;99.90;;;;;;5069075;28;20068;-71
2023/11/01 11:09:30;;;;;;;4.82;1.83;;;14.80;99.90;;;;;;5070434;28;20060;-72
2023/11/01 11:12:20;;;;;;;3.47;1.92;;;14.80;99.90;;;;;;5089049;28;20040;-66
2023/11/01 11:15:06;;;;;;;4.65;1.90;;;14.90;99.90;;;;;;5089492;28;20032;-67
2023/11/01 11:18:07;;;;;;;4.20;1.85;;;14.90;99.90;;;;;;5090701;28;20061;-67
2023/11/01 11:20:55;;;;;;;2.88;1.58;;;15.00;99.90;;;;;;5090601;28;20485;-67
2023/11/01 11:23:41;;;;;;;4.18;1.88;;;15.00;99.90;;;;;;5089897;28;20036;-67
2023/11/01 11:26:53;;;;;;;3.45;1.92;;;15.10;99.90;;;;;;5089536;28;20539;-67
2023/11/01 11:29:45;;;;;;;2.65;1.70;;;15.10;99.90;;;;;;5085494;28;20389;-67
2023/11/01 11:32:32;;;;;;;3.75;1.70;;;15.20;99.90;;;;;;5089090;28;20447;-66
2023/11/01 11:35:19;;;;;;;7.28;2.35;;;15.30;99.90;;;;;;5071790;28;20037;-67
2023/11/01 11:38:36;;;;;;;7.18;1.70;;;15.40;99.90;;;;;;5075211;28;20082;-67
2023/11/01 11:41:38;;;;;;;2.10;1.33;;;15.40;99.90;;;;;;5085728;28;20079;-71
2023/11/01 11:44:25;;;;;;;2.30;1.60;;;15.50;99.90;;;;;;5071412;28;20045;-71
2023/11/01 11:47:29;;;;;;;5.20;1.60;;;15.50;99.90;;;;;;5082270;28;20036;-71
2023/11/01 11:50:19;;;;;;;5.07;1.48;;;15.60;99.90;;;;;;5089243;28;20044;-70
2023/11/01 11:53:05;;;;;;;3.63;2.28;;;15.70;99.90;;;;;;5089107;28;20044;-70
2023/11/01 11:55:51;;;;;;;3.60;1.83;;;15.80;99.90;;;;;;5089744;28;20036;-71
2023/11/01 11:58:40;;;;;;;3.25;1.50;;;15.80;99.90;;;;;;5088672;28;20516;-72
2023/11/01 12:01:27;;;;;;;3.03;1.40;;;15.90;99.90;;;;;;5082281;28;20076;-70
2023/11/01 12:04:14;;;;;;;4.00;1.25;;;16.00;99.90;;;;;;5074312;28;20070;-71
2023/11/01 12:07:00;;;;;;;3.28;1.20;;;16.00;99.90;;;;;;5073598;28;20115;-71
2023/11/01 12:09:56;;;;;;;5.32;2.55;;;16.10;99.90;;;;;;5074456;28;20063;-72
2023/11/01 12:12:53;;;;;;;4.40;1.63;;;16.20;99.90;;;;;;5074323;28;20044;-72
2023/11/01 12:15:42;;;;;;;2.28;1.25;;;16.30;99.90;;;;;;5073569;28;20119;-71
2023/11/01 12:18:29;;;;;;;2.50;1.30;;;16.30;99.90;;;;;;5074809;28;20044;-71
2023/11/01 12:21:15;;;;;;;2.85;1.35;;;16.30;99.90;;;;;;5073716;28;20049;-72
2023/11/01 12:24:01;;;;;;;2.35;1.23;;;16.40;99.90;;;;;;5074237;28;20098;-72
2023/11/01 12:27:09;;;;;;;4.13;1.40;;;16.40;99.90;;;;;;5076341;28;20052;-71
2023/11/01 12:29:57;;;;;;;1.77;1.48;;;16.40;99.90;;;;;;5093692;28;20036;-71
2023/11/01 12:32:43;;;;;;;4.07;2.00;;;16.40;99.90;;;;;;5093281;28;20044;-70
2023/11/01 12:35:43;;;;;;;3.65;1.77;;;16.40;99.90;;;;;;5082658;28;20043;-70
2023/11/01 12:38:28;;;;;;;3.47;1.70;;;16.40;99.90;;;;;;5094498;28;20032;-70
2023/11/01 12:41:15;;;;;;;3.78;1.42;;;16.50;99.90;;;;;;5092692;28;20048;-71
2023/11/01 12:44:02;;;;;;;4.68;1.60;;;16.50;99.90;;;;;;5093371;28;20676;-71
2023/11/01 12:46:48;;;;;;;4.75;2.00;;;16.50;99.90;;;;;;5092297;28;20047;-72
2023/11/01 12:49:39;;;;;;;8.68;1.88;;;16.50;99.90;;;;;;5091303;28;20040;-69
2023/11/01 12:52:25;;;;;;;8.30;2.47;;;16.50;99.90;;;;;;5088551;28;20048;-71
2023/11/01 12:55:12;;;;;;;9.40;3.13;;;16.50;99.90;;;;;;5073470;28;20040;-71
2023/11/01 12:57:59;;;;;;;5.82;1.70;;;16.60;99.90;;;;;;5073568;28;20073;-70
2023/11/01 13:00:45;;;;;;;5.43;1.98;;;16.60;99.90;;;;;;5092545;28;20220;-70
2023/11/01 13:03:31;;;;;;;3.33;1.60;;;16.60;99.90;;;;;;5092197;28;20086;-70
2023/11/01 13:06:18;;;;;;;3.75;1.92;;;16.60;99.90;;;;;;5078322;28;20044;-71
2023/11/01 13:09:04;;;;;;;16.20;1.90;;;16.60;99.90;;;;;;5071430;28;20470;-70
2023/11/01 13:11:50;;;;;;;3.42;1.52;;;16.60;99.90;;;;;;5073063;28;20040;-71
2023/11/01 13:14:36;;;;;;;7.38;2.72;;;16.50;99.90;;;;;;5072300;28;20094;-71
2023/11/01 13:17:23;;;;;;;4.78;2.00;;;16.50;99.90;;;;;;5072685;28;20482;-70
2023/11/01 13:20:09;;;;;;;3.08;1.75;;;16.50;99.90;;;;;;5071676;28;20053;-71
2023/11/01 13:22:55;;;;;;;3.30;1.55;;;16.40;99.90;;;;;;5072837;28;20150;-71
2023/11/01 13:25:41;;;;;;;2.95;1.42;;;16.40;99.90;;;;;;5073346;28;20470;-70
2023/11/01 13:28:27;;;;;;;9.18;2.95;;;16.40;99.90;;;;;;5100918;28;20214;-71
2023/11/01 13:31:13;;;;;;;12.95;3.10;;;16.40;99.90;;;;;;5091562;28;20044;-71
2023/11/01 13:33:59;;;;;;;4.57;2.05;;;16.30;99.90;;;;;;5090862;28;20475;-71
2023/11/01 13:36:44;;;;;;;4.35;2.08;;;16.30;99.90;;;;;;5102293;28;20568;-71
2023/11/01 13:39:31;;;;;;;4.00;1.42;;;16.30;99.90;;;;;;5083416;28;20028;-70
2023/11/01 13:42:17;;;;;;;4.32;2.25;;;16.30;99.90;;;;;;5081724;28;20677;-71
2023/11/01 13:45:03;;;;;;;5.72;2.25;;;16.30;99.90;;;;;;5079112;28;20037;-70
2023/11/01 13:47:49;;;;;;;4.22;1.77;;;16.30;99.90;;;;;;5082676;28;20044;-70
2023/11/01 13:50:38;;;;;;;2.75;1.70;;;16.30;99.90;;;;;;5077329;28;20451;-70
2023/11/01 13:53:24;;;;;;;2.97;1.42;;;16.30;99.90;;;;;;5089145;28;20040;-70
2023/11/01 13:56:10;;;;;;;6.22;1.70;;;16.30;99.90;;;;;;5087299;28;20040;-71
2023/11/01 13:58:56;;;;;;;4.07;1.42;;;16.20;99.90;;;;;;5107120;28;20041;-70
2023/11/01 14:01:42;;;;;;;1.95;1.30;;;16.20;99.90;;;;;;5093412;28;20214;-71
2023/11/01 14:04:28;;;;;;;4.10;1.20;;;16.20;99.90;;;;;;5095067;28;20048;-70
2023/11/01 14:07:14;;;;;;;4.80;2.00;;;16.20;99.90;;;;;;5084202;28;20094;-71
2023/11/01 14:10:01;;;;;;;5.32;1.70;;;16.20;99.90;;;;;;5080170;28;20048;-72
2023/11/01 14:12:48;;;;;;;6.93;2.75;;;16.20;99.90;;;;;;5082767;28;20062;-71
2023/11/01 14:15:34;;;;;;;8.90;2.70;;;16.20;99.90;;;;;;5083593;28;20048;-70
2023/11/01 14:18:21;;;;;;;7.35;2.22;;;16.10;99.90;;;;;;5085538;28;20559;-71
2023/11/01 14:21:11;;;;;;;3.47;2.03;;;16.20;99.90;;;;;;5079862;28;20067;-71
2023/11/01 14:23:56;;;;;;;2.90;1.30;;;16.10;99.90;;;;;;5081698;28;20563;-71
2023/11/01 14:26:44;;;;;;;2.20;1.38;;;16.10;99.90;;;;;;5082665;28;20127;-70
2023/11/01 14:29:31;;;;;;;3.53;1.38;;;16.10;99.90;;;;;;5081419;28;20726;-68